sensor_id;sensor_type;location;lat;lon;timestamp;temperature;humidity
61392;DHT22;47261;52.892;5.738;2023-10-08T00:01:15;17.10;99.90
61392;DHT22;47261;52.892;5.738;2023-10-08T00:03:42;17.00;99.90
61392;DHT22;47261;52.892;5.738;2023-10-08T00:06:20;16.80;99.90
61392;DHT22;47261;52.892;5.738;2023-10-08T00:08:47;16.70;99.90
61392;DHT22;47261;52.892;5.738;2023-10-08T00:11:13;16.50;99.90
61392;DHT22;47261;52.892;5.738;2023-10-08T00:13:42;16.30;99.90
61392;DHT22;47261;52.892;5.738;2023-10-08T00:16:08;16.30;99.90
61392;DHT22;47261;52.892;5.738;2023-10-08T00:18:36;16.10;99.90
61392;DHT22;47261;52.892;5.738;2023-10-08T00:21:03;16.00;99.90
61392;DHT22;47261;52.892;5.738;2023-10-08T00:23:35;15.90;99.90
61392;DHT22;47261;52.892;5.738;2023-10-08T00:26:01;15.90;99.90
61392;DHT22;47261;52.892;5.738;2023-10-08T00:28:30;15.80;99.90
61392;DHT22;47261;52.892;5.738;2023-10-08T00:30:57;15.70;99.90
61392;DHT22;47261;52.892;5.738;2023-10-08T00:33:23;15.70;99.90
61392;DHT22;47261;52.892;5.738;2023-10-08T00:35:49;15.60;99.90
61392;DHT22;47261;52.892;5.738;2023-10-08T00:38:15;15.50;99.90
61392;DHT22;47261;52.892;5.738;2023-10-08T00:40:43;15.50;99.90
61392;DHT22;47261;52.892;5.738;2023-10-08T00:43:31;15.40;99.90
61392;DHT22;47261;52.892;5.738;2023-10-08T00:46:04;15.40;99.90
61392;DHT22;47261;52.892;5.738;2023-10-08T00:48:31;15.40;99.90
61392;DHT22;47261;52.892;5.738;2023-10-08T00:51:03;15.30;99.90
61392;DHT22;47261;52.892;5.738;2023-10-08T00:54:03;15.20;99.90
61392;DHT22;47261;52.892;5.738;2023-10-08T00:56:36;15.20;99.90
61392;DHT22;47261;52.892;5.738;2023-10-08T00:59:20;15.20;99.90
61392;DHT22;47261;52.892;5.738;2023-10-08T01:01:48;15.20;99.90
61392;DHT22;47261;52.892;5.738;2023-10-08T01:04:23;15.20;99.90
61392;DHT22;47261;52.892;5.738;2023-10-08T01:06:52;15.20;99.90
61392;DHT22;47261;52.892;5.738;2023-10-08T01:09:25;15.10;99.90
61392;DHT22;47261;52.892;5.738;2023-10-08T01:12:14;15.20;99.90
61392;DHT22;47261;52.892;5.738;2023-10-08T01:15:02;15.10;99.90
61392;DHT22;47261;52.892;5.738;2023-10-08T01:17:49;15.10;99.90
61392;DHT22;47261;52.892;5.738;2023-10-08T01:20:30;15.10;99.90
61392;DHT22;47261;52.892;5.738;2023-10-08T01:23:09;15.10;99.90
61392;DHT22;47261;52.892;5.738;2023-10-08T01:25:46;15.10;99.90
61392;DHT22;47261;52.892;5.738;2023-10-08T01:28:20;15.00;99.90
61392;DHT22;47261;52.892;5.738;2023-10-08T01:30:55;15.00;99.90
61392;DHT22;47261;52.892;5.738;2023-10-08T01:33:23;15.00;99.90
61392;DHT22;47261;52.892;5.738;2023-10-08T01:35:54;15.00;99.90
61392;DHT22;47261;52.892;5.738;2023-10-08T01:38:20;15.00;99.90
61392;DHT22;47261;52.892;5.738;2023-10-08T01:40:49;15.00;99.90
61392;DHT22;47261;52.892;5.738;2023-10-08T01:43:18;15.00;99.90
61392;DHT22;47261;52.892;5.738;2023-10-08T01:45:45;15.00;99.90
61392;DHT22;47261;52.892;5.738;2023-10-08T01:48:15;15.00;99.90
61392;DHT22;47261;52.892;5.738;2023-10-08T01:50:57;14.90;99.90
61392;DHT22;47261;52.892;5.738;2023-10-08T01:53:27;15.00;99.90
61392;DHT22;47261;52.892;5.738;2023-10-08T01:55:53;14.90;99.90
61392;DHT22;47261;52.892;5.738;2023-10-08T01:58:19;14.90;99.90
61392;DHT22;47261;52.892;5.738;2023-10-08T02:00:46;14.90;99.90
61392;DHT22;47261;52.892;5.738;2023-10-08T02:03:13;14.80;99.90
61392;DHT22;47261;52.892;5.738;2023-10-08T02:05:46;14.80;99.90
61392;DHT22;47261;52.892;5.738;2023-10-08T02:08:13;14.70;99.90
61392;DHT22;47261;52.892;5.738;2023-10-08T02:10:40;14.70;99.90
61392;DHT22;47261;52.892;5.738;2023-10-08T02:13:07;14.70;99.90
61392;DHT22;47261;52.892;5.738;2023-10-08T02:15:40;14.70;99.90
61392;DHT22;47261;52.892;5.738;2023-10-08T02:18:06;14.70;99.90
61392;DHT22;47261;52.892;5.738;2023-10-08T02:20:32;14.70;99.90
61392;DHT22;47261;52.892;5.738;2023-10-08T02:22:58;14.70;99.90
61392;DHT22;47261;52.892;5.738;2023-10-08T02:25:25;14.70;99.90
61392;DHT22;47261;52.892;5.738;2023-10-08T02:27:51;14.70;99.90
61392;DHT22;47261;52.892;5.738;2023-10-08T02:30:17;14.70;99.90
61392;DHT22;47261;52.892;5.738;2023-10-08T02:32:43;14.70;99.90
61392;DHT22;47261;52.892;5.738;2023-10-08T02:35:12;14.80;99.90
61392;DHT22;47261;52.892;5.738;2023-10-08T02:37:39;14.80;99.90
61392;DHT22;47261;52.892;5.738;2023-10-08T02:40:09;14.80;99.90
61392;DHT22;47261;52.892;5.738;2023-10-08T02:42:57;14.80;99.90
61392;DHT22;47261;52.892;5.738;2023-10-08T02:45:27;14.80;99.90
61392;DHT22;47261;52.892;5.738;2023-10-08T02:47:56;14.90;99.90
61392;DHT22;47261;52.892;5.738;2023-10-08T02:50:22;14.90;99.90
61392;DHT22;47261;52.892;5.738;2023-10-08T02:52:49;14.90;99.90
61392;DHT22;47261;52.892;5.738;2023-10-08T02:55:16;14.90;99.90
61392;DHT22;47261;52.892;5.738;2023-10-08T02:58:00;14.90;99.90
61392;DHT22;47261;52.892;5.738;2023-10-08T03:00:30;14.90;99.90
61392;DHT22;47261;52.892;5.738;2023-10-08T03:02:57;14.80;99.90
61392;DHT22;47261;52.892;5.738;2023-10-08T03:05:23;14.80;99.90
61392;DHT22;47261;52.892;5.738;2023-10-08T03:07:54;14.80;99.90
61392;DHT22;47261;52.892;5.738;2023-10-08T03:10:20;14.80;99.90
61392;DHT22;47261;52.892;5.738;2023-10-08T03:12:47;14.80;99.90
61392;DHT22;47261;52.892;5.738;2023-10-08T03:15:15;14.70;99.90
61392;DHT22;47261;52.892;5.738;2023-10-08T03:18:03;14.80;99.90
61392;DHT22;47261;52.892;5.738;2023-10-08T03:20:43;14.80;99.90
61392;DHT22;47261;52.892;5.738;2023-10-08T03:23:12;14.80;99.90
61392;DHT22;47261;52.892;5.738;2023-10-08T03:28:23;14.80;99.90
61392;DHT22;47261;52.892;5.738;2023-10-08T03:30:57;14.80;99.90
61392;DHT22;47261;52.892;5.738;2023-10-08T03:33:36;14.80;99.90
61392;DHT22;47261;52.892;5.738;2023-10-08T03:36:04;14.80;99.90
61392;DHT22;47261;52.892;5.738;2023-10-08T03:39:00;14.80;99.90
61392;DHT22;47261;52.892;5.738;2023-10-08T03:41:36;14.90;99.90
61392;DHT22;47261;52.892;5.738;2023-10-08T03:44:05;14.90;99.90
61392;DHT22;47261;52.892;5.738;2023-10-08T03:46:35;14.90;99.90
61392;DHT22;47261;52.892;5.738;2023-10-08T03:49:05;14.90;99.90
61392;DHT22;47261;52.892;5.738;2023-10-08T03:52:00;14.90;99.90
61392;DHT22;47261;52.892;5.738;2023-10-08T03:54:26;14.90;99.90
61392;DHT22;47261;52.892;5.738;2023-10-08T03:57:02;14.90;99.90
61392;DHT22;47261;52.892;5.738;2023-10-08T03:59:29;14.90;99.90
61392;DHT22;47261;52.892;5.738;2023-10-08T04:01:59;15.00;99.90
61392;DHT22;47261;52.892;5.738;2023-10-08T04:04:42;15.00;99.90
61392;DHT22;47261;52.892;5.738;2023-10-08T04:07:18;15.00;99.90
61392;DHT22;47261;52.892;5.738;2023-10-08T04:10:00;15.00;99.90
61392;DHT22;47261;52.892;5.738;2023-10-08T04:12:51;14.90;99.90
61392;DHT22;47261;52.892;5.738;2023-10-08T04:15:19;15.00;99.90
61392;DHT22;47261;52.892;5.738;2023-10-08T04:17:45;15.00;99.90
61392;DHT22;47261;52.892;5.738;2023-10-08T04:20:17;15.00;99.90
61392;DHT22;47261;52.892;5.738;2023-10-08T04:23:02;15.00;99.90
61392;DHT22;47261;52.892;5.738;2023-10-08T04:25:31;15.00;99.90
61392;DHT22;47261;52.892;5.738;2023-10-08T04:27:58;15.00;99.90
61392;DHT22;47261;52.892;5.738;2023-10-08T04:33:04;14.90;99.90
61392;DHT22;47261;52.892;5.738;2023-10-08T04:35:37;14.90;99.90
61392;DHT22;47261;52.892;5.738;2023-10-08T04:38:09;14.90;99.90
61392;DHT22;47261;52.892;5.738;2023-10-08T04:40:36;14.90;99.90
61392;DHT22;47261;52.892;5.738;2023-10-08T04:43:17;14.90;99.90
61392;DHT22;47261;52.892;5.738;2023-10-08T04:45:50;14.90;99.90
61392;DHT22;47261;52.892;5.738;2023-10-08T04:48:16;14.90;99.90
61392;DHT22;47261;52.892;5.738;2023-10-08T04:50:47;14.90;99.90
61392;DHT22;47261;52.892;5.738;2023-10-08T04:53:16;14.90;99.90
61392;DHT22;47261;52.892;5.738;2023-10-08T04:55:42;14.80;99.90
61392;DHT22;47261;52.892;5.738;2023-10-08T04:58:14;14.80;99.90
61392;DHT22;47261;52.892;5.738;2023-10-08T05:00:47;14.80;99.90
61392;DHT22;47261;52.892;5.738;2023-10-08T05:03:25;14.80;99.90
61392;DHT22;47261;52.892;5.738;2023-10-08T05:05:57;14.80;99.90
61392;DHT22;47261;52.892;5.738;2023-10-08T05:08:32;14.80;99.90
61392;DHT22;47261;52.892;5.738;2023-10-08T05:11:10;14.80;99.90
61392;DHT22;47261;52.892;5.738;2023-10-08T05:13:50;14.80;99.90
61392;DHT22;47261;52.892;5.738;2023-10-08T05:16:31;14.80;99.90
61392;DHT22;47261;52.892;5.738;2023-10-08T05:19:03;14.80;99.90
61392;DHT22;47261;52.892;5.738;2023-10-08T05:21:39;14.80;99.90
61392;DHT22;47261;52.892;5.738;2023-10-08T05:24:17;14.80;99.90
61392;DHT22;47261;52.892;5.738;2023-10-08T05:26:53;14.80;99.90
61392;DHT22;47261;52.892;5.738;2023-10-08T05:29:38;14.80;99.90
61392;DHT22;47261;52.892;5.738;2023-10-08T05:32:39;14.80;99.90
61392;DHT22;47261;52.892;5.738;2023-10-08T05:35:23;14.80;99.90
61392;DHT22;47261;52.892;5.738;2023-10-08T05:38:08;14.80;99.90
61392;DHT22;47261;52.892;5.738;2023-10-08T05:40:53;14.80;99.90
61392;DHT22;47261;52.892;5.738;2023-10-08T05:43:22;14.80;99.90
61392;DHT22;47261;52.892;5.738;2023-10-08T05:46:35;14.80;99.90
61392;DHT22;47261;52.892;5.738;2023-10-08T05:48:59;14.80;99.90
61392;DHT22;47261;52.892;5.738;2023-10-08T05:51:32;14.90;99.90
61392;DHT22;47261;52.892;5.738;2023-10-08T05:59:39;14.80;99.90
61392;DHT22;47261;52.892;5.738;2023-10-08T06:02:19;14.80;99.90
61392;DHT22;47261;52.892;5.738;2023-10-08T06:05:07;14.80;99.90
61392;DHT22;47261;52.892;5.738;2023-10-08T06:07:44;14.80;99.90
61392;DHT22;47261;52.892;5.738;2023-10-08T06:10:27;14.80;99.90
61392;DHT22;47261;52.892;5.738;2023-10-08T06:13:03;14.80;99.90
61392;DHT22;47261;52.892;5.738;2023-10-08T06:15:39;14.80;99.90
61392;DHT22;47261;52.892;5.738;2023-10-08T06:18:25;14.80;99.90
61392;DHT22;47261;52.892;5.738;2023-10-08T06:20:55;14.80;99.90
61392;DHT22;47261;52.892;5.738;2023-10-08T06:23:22;14.80;99.90
61392;DHT22;47261;52.892;5.738;2023-10-08T06:25:52;14.80;99.90
61392;DHT22;47261;52.892;5.738;2023-10-08T06:28:36;14.80;99.90
61392;DHT22;47261;52.892;5.738;2023-10-08T06:31:04;14.80;99.90
61392;DHT22;47261;52.892;5.738;2023-10-08T06:33:38;14.90;99.90
61392;DHT22;47261;52.892;5.738;2023-10-08T06:36:06;14.80;99.90
61392;DHT22;47261;52.892;5.738;2023-10-08T06:38:42;14.90;99.90
61392;DHT22;47261;52.892;5.738;2023-10-08T06:41:11;14.90;99.90
61392;DHT22;47261;52.892;5.738;2023-10-08T06:43:43;14.90;99.90
61392;DHT22;47261;52.892;5.738;2023-10-08T06:46:09;14.80;99.90
61392;DHT22;47261;52.892;5.738;2023-10-08T06:48:38;14.80;99.90
61392;DHT22;47261;52.892;5.738;2023-10-08T06:51:08;14.80;99.90
61392;DHT22;47261;52.892;5.738;2023-10-08T06:53:39;14.80;99.90
61392;DHT22;47261;52.892;5.738;2023-10-08T06:56:05;14.80;99.90
61392;DHT22;47261;52.892;5.738;2023-10-08T06:58:31;14.80;99.90
61392;DHT22;47261;52.892;5.738;2023-10-08T07:01:00;14.80;99.90
61392;DHT22;47261;52.892;5.738;2023-10-08T07:03:35;14.90;99.90
61392;DHT22;47261;52.892;5.738;2023-10-08T07:06:01;14.90;99.90
61392;DHT22;47261;52.892;5.738;2023-10-08T07:08:43;15.00;99.90
61392;DHT22;47261;52.892;5.738;2023-10-08T07:11:12;15.10;99.90
61392;DHT22;47261;52.892;5.738;2023-10-08T07:13:39;15.10;99.90
61392;DHT22;47261;52.892;5.738;2023-10-08T07:16:07;15.10;99.90
61392;DHT22;47261;52.892;5.738;2023-10-08T07:18:39;15.00;99.90
61392;DHT22;47261;52.892;5.738;2023-10-08T07:21:07;15.00;99.90
61392;DHT22;47261;52.892;5.738;2023-10-08T07:23:39;15.00;99.90
61392;DHT22;47261;52.892;5.738;2023-10-08T07:26:22;15.00;99.90
61392;DHT22;47261;52.892;5.738;2023-10-08T07:28:50;15.00;99.90
61392;DHT22;47261;52.892;5.738;2023-10-08T07:31:20;15.00;99.90
61392;DHT22;47261;52.892;5.738;2023-10-08T07:33:48;15.00;99.90
61392;DHT22;47261;52.892;5.738;2023-10-08T07:36:19;15.00;99.90
61392;DHT22;47261;52.892;5.738;2023-10-08T07:38:45;15.00;99.90
61392;DHT22;47261;52.892;5.738;2023-10-08T07:41:13;15.00;99.90
61392;DHT22;47261;52.892;5.738;2023-10-08T07:43:42;15.10;99.90
61392;DHT22;47261;52.892;5.738;2023-10-08T07:46:08;15.10;99.90
61392;DHT22;47261;52.892;5.738;2023-10-08T07:48:35;15.20;99.90
61392;DHT22;47261;52.892;5.738;2023-10-08T07:51:01;15.20;99.90
61392;DHT22;47261;52.892;5.738;2023-10-08T07:53:27;15.30;99.90
61392;DHT22;47261;52.892;5.738;2023-10-08T07:56:04;15.40;99.90
61392;DHT22;47261;52.892;5.738;2023-10-08T07:58:32;15.50;99.90
61392;DHT22;47261;52.892;5.738;2023-10-08T08:01:06;15.50;99.90
61392;DHT22;47261;52.892;5.738;2023-10-08T08:03:33;15.50;99.90
61392;DHT22;47261;52.892;5.738;2023-10-08T08:06:00;15.60;99.90
61392;DHT22;47261;52.892;5.738;2023-10-08T08:08:26;15.60;99.90
61392;DHT22;47261;52.892;5.738;2023-10-08T08:10:53;15.70;99.90
61392;DHT22;47261;52.892;5.738;2023-10-08T08:13:28;15.80;99.90
61392;DHT22;47261;52.892;5.738;2023-10-08T08:15:55;15.80;99.90
61392;DHT22;47261;52.892;5.738;2023-10-08T08:18:25;15.90;99.90
61392;DHT22;47261;52.892;5.738;2023-10-08T08:20:50;15.90;99.90
61392;DHT22;47261;52.892;5.738;2023-10-08T08:23:16;16.00;99.90
61392;DHT22;47261;52.892;5.738;2023-10-08T08:25:43;16.10;99.90
61392;DHT22;47261;52.892;5.738;2023-10-08T08:28:12;16.10;99.90
61392;DHT22;47261;52.892;5.738;2023-10-08T08:30:47;16.10;99.90
61392;DHT22;47261;52.892;5.738;2023-10-08T08:33:13;16.10;99.90
61392;DHT22;47261;52.892;5.738;2023-10-08T08:35:47;16.10;99.90
61392;DHT22;47261;52.892;5.738;2023-10-08T08:38:13;16.20;99.90
61392;DHT22;47261;52.892;5.738;2023-10-08T08:40:39;16.20;99.90
61392;DHT22;47261;52.892;5.738;2023-10-08T08:43:05;16.30;99.90
61392;DHT22;47261;52.892;5.738;2023-10-08T08:45:31;16.30;99.90
61392;DHT22;47261;52.892;5.738;2023-10-08T08:47:59;16.30;99.90
61392;DHT22;47261;52.892;5.738;2023-10-08T08:50:25;16.30;99.90
61392;DHT22;47261;52.892;5.738;2023-10-08T08:52:53;16.30;99.90
61392;DHT22;47261;52.892;5.738;2023-10-08T08:55:18;16.30;99.90
61392;DHT22;47261;52.892;5.738;2023-10-08T08:57:50;16.40;99.90
61392;DHT22;47261;52.892;5.738;2023-10-08T09:00:17;16.40;99.90
61392;DHT22;47261;52.892;5.738;2023-10-08T09:02:47;16.40;99.90
61392;DHT22;47261;52.892;5.738;2023-10-08T09:05:14;16.40;99.90
61392;DHT22;47261;52.892;5.738;2023-10-08T09:07:59;16.40;99.90
61392;DHT22;47261;52.892;5.738;2023-10-08T09:10:29;16.40;99.90
61392;DHT22;47261;52.892;5.738;2023-10-08T09:12:56;16.40;99.90
61392;DHT22;47261;52.892;5.738;2023-10-08T09:15:26;16.50;99.90
61392;DHT22;47261;52.892;5.738;2023-10-08T09:17:55;16.50;99.90
61392;DHT22;47261;52.892;5.738;2023-10-08T09:20:22;16.50;99.90
61392;DHT22;47261;52.892;5.738;2023-10-08T09:23:07;16.50;99.90
61392;DHT22;47261;52.892;5.738;2023-10-08T09:25:34;16.50;99.90
61392;DHT22;47261;52.892;5.738;2023-10-08T09:28:00;16.50;99.90
61392;DHT22;47261;52.892;5.738;2023-10-08T09:30:29;16.60;99.90
61392;DHT22;47261;52.892;5.738;2023-10-08T09:32:55;16.60;99.90
61392;DHT22;47261;52.892;5.738;2023-10-08T09:35:22;16.60;99.90
61392;DHT22;47261;52.892;5.738;2023-10-08T09:37:50;16.60;99.90
61392;DHT22;47261;52.892;5.738;2023-10-08T09:40:17;16.70;99.90
61392;DHT22;47261;52.892;5.738;2023-10-08T09:42:47;16.80;99.90
61392;DHT22;47261;52.892;5.738;2023-10-08T09:45:13;17.00;99.90
61392;DHT22;47261;52.892;5.738;2023-10-08T09:47:43;17.10;99.90
61392;DHT22;47261;52.892;5.738;2023-10-08T09:50:10;17.10;99.60
61392;DHT22;47261;52.892;5.738;2023-10-08T09:53:01;17.20;99.50
61392;DHT22;47261;52.892;5.738;2023-10-08T09:55:31;17.40;99.20
61392;DHT22;47261;52.892;5.738;2023-10-08T09:57:57;17.50;99.30
61392;DHT22;47261;52.892;5.738;2023-10-08T10:00:24;17.70;99.10
61392;DHT22;47261;52.892;5.738;2023-10-08T10:03:01;17.90;98.60
61392;DHT22;47261;52.892;5.738;2023-10-08T10:05:32;17.90;98.00
61392;DHT22;47261;52.892;5.738;2023-10-08T10:08:02;17.80;97.70
61392;DHT22;47261;52.892;5.738;2023-10-08T10:10:32;17.90;97.50
61392;DHT22;47261;52.892;5.738;2023-10-08T10:13:01;17.80;97.20
61392;DHT22;47261;52.892;5.738;2023-10-08T10:15:27;17.80;97.00
61392;DHT22;47261;52.892;5.738;2023-10-08T10:20:58;17.90;96.60
61392;DHT22;47261;52.892;5.738;2023-10-08T10:23:35;18.00;96.40
61392;DHT22;47261;52.892;5.738;2023-10-08T10:26:21;17.90;96.00
61392;DHT22;47261;52.892;5.738;2023-10-08T10:31:44;17.80;95.90
61392;DHT22;47261;52.892;5.738;2023-10-08T10:34:17;17.80;96.00
61392;DHT22;47261;52.892;5.738;2023-10-08T10:36:44;17.80;96.20
61392;DHT22;47261;52.892;5.738;2023-10-08T10:39:14;17.90;96.20
61392;DHT22;47261;52.892;5.738;2023-10-08T10:41:52;17.90;96.10
61392;DHT22;47261;52.892;5.738;2023-10-08T10:44:23;18.10;96.00
61392;DHT22;47261;52.892;5.738;2023-10-08T10:46:49;18.30;95.80
61392;DHT22;47261;52.892;5.738;2023-10-08T10:49:38;18.40;95.40
61392;DHT22;47261;52.892;5.738;2023-10-08T10:52:36;18.60;95.00
61392;DHT22;47261;52.892;5.738;2023-10-08T10:55:12;18.70;94.90
61392;DHT22;47261;52.892;5.738;2023-10-08T10:57:47;18.80;94.80
61392;DHT22;47261;52.892;5.738;2023-10-08T11:00:31;18.80;94.40
61392;DHT22;47261;52.892;5.738;2023-10-08T11:02:58;18.70;94.40
61392;DHT22;47261;52.892;5.738;2023-10-08T11:05:37;18.60;94.50
61392;DHT22;47261;52.892;5.738;2023-10-08T11:08:06;18.50;94.50
61392;DHT22;47261;52.892;5.738;2023-10-08T11:10:37;18.50;94.70
61392;DHT22;47261;52.892;5.738;2023-10-08T11:13:11;18.40;94.70
61392;DHT22;47261;52.892;5.738;2023-10-08T11:15:44;18.40;94.60
61392;DHT22;47261;52.892;5.738;2023-10-08T11:18:16;18.40;94.60
61392;DHT22;47261;52.892;5.738;2023-10-08T11:20:43;18.50;94.50
61392;DHT22;47261;52.892;5.738;2023-10-08T11:23:39;18.50;94.50
61392;DHT22;47261;52.892;5.738;2023-10-08T11:26:07;18.60;94.20
61392;DHT22;47261;52.892;5.738;2023-10-08T11:28:37;18.70;94.20
61392;DHT22;47261;52.892;5.738;2023-10-08T11:31:14;18.70;94.20
61392;DHT22;47261;52.892;5.738;2023-10-08T11:33:44;18.70;94.10
61392;DHT22;47261;52.892;5.738;2023-10-08T11:36:35;18.70;94.00
61392;DHT22;47261;52.892;5.738;2023-10-08T11:39:10;18.70;94.00
61392;DHT22;47261;52.892;5.738;2023-10-08T11:41:37;18.70;94.30
61392;DHT22;47261;52.892;5.738;2023-10-08T11:44:17;18.80;94.40
61392;DHT22;47261;52.892;5.738;2023-10-08T11:46:45;19.00;94.10
61392;DHT22;47261;52.892;5.738;2023-10-08T11:49:12;19.00;93.90
61392;DHT22;47261;52.892;5.738;2023-10-08T11:51:46;19.10;93.80
61392;DHT22;47261;52.892;5.738;2023-10-08T11:54:12;19.20;93.70
61392;DHT22;47261;52.892;5.738;2023-10-08T11:56:38;19.20;93.70
61392;DHT22;47261;52.892;5.738;2023-10-08T11:59:05;19.10;93.60
61392;DHT22;47261;52.892;5.738;2023-10-08T12:01:36;19.10;93.60
61392;DHT22;47261;52.892;5.738;2023-10-08T12:04:03;19.10;93.60
61392;DHT22;47261;52.892;5.738;2023-10-08T12:06:29;19.20;93.40
61392;DHT22;47261;52.892;5.738;2023-10-08T12:08:59;19.20;93.20
61392;DHT22;47261;52.892;5.738;2023-10-08T12:11:25;19.20;93.20
61392;DHT22;47261;52.892;5.738;2023-10-08T12:13:58;19.20;93.20
61392;DHT22;47261;52.892;5.738;2023-10-08T12:16:26;19.20;93.10
61392;DHT22;47261;52.892;5.738;2023-10-08T12:18:56;19.20;93.00
61392;DHT22;47261;52.892;5.738;2023-10-08T12:21:27;19.20;93.00
61392;DHT22;47261;52.892;5.738;2023-10-08T12:23:59;19.20;93.10
61392;DHT22;47261;52.892;5.738;2023-10-08T12:26:26;19.10;92.90
61392;DHT22;47261;52.892;5.738;2023-10-08T12:28:52;19.00;92.70
61392;DHT22;47261;52.892;5.738;2023-10-08T12:31:20;18.90;92.80
61392;DHT22;47261;52.892;5.738;2023-10-08T12:33:49;18.80;93.10
61392;DHT22;47261;52.892;5.738;2023-10-08T12:36:19;18.80;93.40
61392;DHT22;47261;52.892;5.738;2023-10-08T12:38:48;18.90;93.40
61392;DHT22;47261;52.892;5.738;2023-10-08T12:41:14;18.80;93.20
61392;DHT22;47261;52.892;5.738;2023-10-08T12:43:41;18.80;93.20
61392;DHT22;47261;52.892;5.738;2023-10-08T12:46:18;18.70;93.40
61392;DHT22;47261;52.892;5.738;2023-10-08T12:48:47;18.70;93.50
61392;DHT22;47261;52.892;5.738;2023-10-08T12:51:18;18.80;93.50
61392;DHT22;47261;52.892;5.738;2023-10-08T12:53:44;18.90;93.40
61392;DHT22;47261;52.892;5.738;2023-10-08T12:56:16;18.90;93.10
61392;DHT22;47261;52.892;5.738;2023-10-08T12:58:43;18.90;93.00
61392;DHT22;47261;52.892;5.738;2023-10-08T13:01:14;18.80;93.00
61392;DHT22;47261;52.892;5.738;2023-10-08T13:03:45;18.70;92.90
61392;DHT22;47261;52.892;5.738;2023-10-08T13:06:18;18.70;92.80
61392;DHT22;47261;52.892;5.738;2023-10-08T13:08:49;18.60;92.80
61392;DHT22;47261;52.892;5.738;2023-10-08T13:11:14;18.50;92.90
61392;DHT22;47261;52.892;5.738;2023-10-08T13:13:40;18.50;92.90
61392;DHT22;47261;52.892;5.738;2023-10-08T13:16:07;18.50;93.00
61392;DHT22;47261;52.892;5.738;2023-10-08T13:18:35;18.40;93.00
61392;DHT22;47261;52.892;5.738;2023-10-08T13:21:08;18.30;93.20
61392;DHT22;47261;52.892;5.738;2023-10-08T13:23:35;18.30;93.40
61392;DHT22;47261;52.892;5.738;2023-10-08T13:26:01;18.30;93.40
61392;DHT22;47261;52.892;5.738;2023-10-08T13:28:30;18.30;93.50
61392;DHT22;47261;52.892;5.738;2023-10-08T13:31:04;18.30;93.50
61392;DHT22;47261;52.892;5.738;2023-10-08T13:33:37;18.30;93.50
61392;DHT22;47261;52.892;5.738;2023-10-08T13:36:09;18.20;93.40
61392;DHT22;47261;52.892;5.738;2023-10-08T13:38:38;18.20;93.40
61392;DHT22;47261;52.892;5.738;2023-10-08T13:41:07;18.10;93.50
61392;DHT22;47261;52.892;5.738;2023-10-08T13:43:47;18.00;93.60
61392;DHT22;47261;52.892;5.738;2023-10-08T13:46:18;17.90;93.50
61392;DHT22;47261;52.892;5.738;2023-10-08T13:48:46;17.90;93.60
61392;DHT22;47261;52.892;5.738;2023-10-08T13:51:15;17.90;93.80
61392;DHT22;47261;52.892;5.738;2023-10-08T13:53:49;18.00;93.90
61392;DHT22;47261;52.892;5.738;2023-10-08T13:56:18;18.10;93.90
61392;DHT22;47261;52.892;5.738;2023-10-08T13:58:46;18.20;93.70
61392;DHT22;47261;52.892;5.738;2023-10-08T14:01:15;18.30;93.50
61392;DHT22;47261;52.892;5.738;2023-10-08T14:03:48;18.30;93.50
61392;DHT22;47261;52.892;5.738;2023-10-08T14:06:15;18.30;93.50
61392;DHT22;47261;52.892;5.738;2023-10-08T14:08:42;18.20;93.50
61392;DHT22;47261;52.892;5.738;2023-10-08T14:11:10;18.10;93.60
61392;DHT22;47261;52.892;5.738;2023-10-08T14:13:38;18.10;93.80
61392;DHT22;47261;52.892;5.738;2023-10-08T14:16:08;18.00;93.90
61392;DHT22;47261;52.892;5.738;2023-10-08T14:18:36;18.00;93.90
61392;DHT22;47261;52.892;5.738;2023-10-08T14:21:09;17.90;93.80
61392;DHT22;47261;52.892;5.738;2023-10-08T14:23:38;17.80;93.90
61392;DHT22;47261;52.892;5.738;2023-10-08T14:26:06;17.80;94.00
61392;DHT22;47261;52.892;5.738;2023-10-08T14:28:34;17.70;94.20
61392;DHT22;47261;52.892;5.738;2023-10-08T14:31:08;17.70;94.30
61392;DHT22;47261;52.892;5.738;2023-10-08T14:33:34;17.70;94.30
61392;DHT22;47261;52.892;5.738;2023-10-08T14:36:10;17.60;94.30
61392;DHT22;47261;52.892;5.738;2023-10-08T14:38:54;17.70;94.40
61392;DHT22;47261;52.892;5.738;2023-10-08T14:41:39;17.70;94.50
61392;DHT22;47261;52.892;5.738;2023-10-08T14:44:23;17.80;94.40
61392;DHT22;47261;52.892;5.738;2023-10-08T14:46:50;17.80;94.30
61392;DHT22;47261;52.892;5.738;2023-10-08T14:49:16;17.90;94.40
61392;DHT22;47261;52.892;5.738;2023-10-08T14:51:42;17.80;94.30
61392;DHT22;47261;52.892;5.738;2023-10-08T14:54:08;17.90;94.30
61392;DHT22;47261;52.892;5.738;2023-10-08T14:56:37;17.80;94.30
61392;DHT22;47261;52.892;5.738;2023-10-08T14:59:04;17.80;94.40
61392;DHT22;47261;52.892;5.738;2023-10-08T15:01:30;17.80;94.40
61392;DHT22;47261;52.892;5.738;2023-10-08T15:03:59;17.80;94.50
61392;DHT22;47261;52.892;5.738;2023-10-08T15:06:30;17.70;94.60
61392;DHT22;47261;52.892;5.738;2023-10-08T15:08:56;17.70;94.60
61392;DHT22;47261;52.892;5.738;2023-10-08T15:11:23;17.60;94.50
61392;DHT22;47261;52.892;5.738;2023-10-08T15:13:48;17.60;94.50
61392;DHT22;47261;52.892;5.738;2023-10-08T15:16:19;17.50;94.50
61392;DHT22;47261;52.892;5.738;2023-10-08T15:18:49;17.40;94.60
61392;DHT22;47261;52.892;5.738;2023-10-08T15:21:14;17.40;94.60
61392;DHT22;47261;52.892;5.738;2023-10-08T15:23:40;17.30;94.70
61392;DHT22;47261;52.892;5.738;2023-10-08T15:26:06;17.30;94.80
61392;DHT22;47261;52.892;5.738;2023-10-08T15:28:32;17.30;94.90
61392;DHT22;47261;52.892;5.738;2023-10-08T15:30:58;17.20;94.90
61392;DHT22;47261;52.892;5.738;2023-10-08T15:33:24;17.20;95.00
61392;DHT22;47261;52.892;5.738;2023-10-08T15:35:52;17.20;95.00
61392;DHT22;47261;52.892;5.738;2023-10-08T15:38:18;17.10;95.00
61392;DHT22;47261;52.892;5.738;2023-10-08T15:40:43;17.10;95.10
61392;DHT22;47261;52.892;5.738;2023-10-08T15:43:10;17.10;95.20
61392;DHT22;47261;52.892;5.738;2023-10-08T15:45:37;17.10;95.30
61392;DHT22;47261;52.892;5.738;2023-10-08T15:48:03;17.00;95.30
61392;DHT22;47261;52.892;5.738;2023-10-08T15:50:30;17.00;95.40
61392;DHT22;47261;52.892;5.738;2023-10-08T15:52:58;17.00;95.50
61392;DHT22;47261;52.892;5.738;2023-10-08T15:55:27;17.00;95.50
61392;DHT22;47261;52.892;5.738;2023-10-08T15:57:53;17.00;95.50
61392;DHT22;47261;52.892;5.738;2023-10-08T16:00:18;16.90;95.50
61392;DHT22;47261;52.892;5.738;2023-10-08T16:02:44;16.90;95.50
61392;DHT22;47261;52.892;5.738;2023-10-08T16:05:11;16.90;95.60
61392;DHT22;47261;52.892;5.738;2023-10-08T16:07:38;16.80;95.70
61392;DHT22;47261;52.892;5.738;2023-10-08T16:10:04;16.80;95.80
61392;DHT22;47261;52.892;5.738;2023-10-08T16:12:29;16.80;95.90